createdAt,value
2023-04-27T00:00:55.005Z,10.03
2023-04-27T00:03:40.136Z,10.06
2023-04-27T00:06:25.065Z,10.04
2023-04-27T00:09:10.071Z,9.97
2023-04-27T00:11:55.061Z,9.90
2023-04-27T00:14:40.056Z,9.87
2023-04-27T00:17:25.128Z,9.88
2023-04-27T00:20:09.917Z,9.78
2023-04-27T00:22:54.938Z,9.78
2023-04-27T00:25:39.875Z,9.78
2023-04-27T00:28:24.853Z,9.72
2023-04-27T00:31:09.824Z,9.67
2023-04-27T00:33:54.744Z,9.67
2023-04-27T00:36:39.835Z,9.66
2023-04-27T00:39:24.783Z,9.58
2023-04-27T00:42:09.854Z,9.46
2023-04-27T00:44:54.724Z,9.57
2023-04-27T00:47:39.835Z,9.44
2023-04-27T00:50:24.815Z,9.40
2023-04-27T00:53:09.686Z,9.40
2023-04-27T00:55:54.868Z,9.39
2023-04-27T00:58:39.901Z,9.38
2023-04-27T01:01:25.118Z,9.33
2023-04-27T01:04:10.323Z,9.34
2023-04-27T01:06:55.685Z,9.25
2023-04-27T01:09:41.118Z,9.20
2023-04-27T01:12:26.126Z,9.22
2023-04-27T01:15:11.076Z,9.16
2023-04-27T01:17:55.961Z,9.13
2023-04-27T01:20:41.032Z,9.04
2023-04-27T01:23:25.923Z,9.11
2023-04-27T01:26:10.912Z,9.01
2023-04-27T01:28:55.712Z,8.99
2023-04-27T01:31:40.901Z,8.99
2023-04-27T01:34:25.599Z,8.89
2023-04-27T01:37:10.609Z,8.90
2023-04-27T01:39:55.591Z,8.86
2023-04-27T01:42:40.455Z,8.89
2023-04-27T01:45:25.530Z,8.84
2023-04-27T01:48:10.502Z,8.86
2023-04-27T01:50:55.519Z,8.82
2023-04-27T01:53:40.373Z,8.77
2023-04-27T01:56:25.267Z,8.74
2023-04-27T01:59:10.296Z,8.68
2023-04-27T02:01:55.371Z,8.64
2023-04-27T02:04:40.737Z,8.60
2023-04-27T02:07:25.504Z,8.64
2023-04-27T02:10:10.663Z,8.59
2023-04-27T02:12:55.819Z,8.59
2023-04-27T02:15:40.804Z,8.57
2023-04-27T02:18:25.529Z,8.54
2023-04-27T02:21:10.472Z,8.58
2023-04-27T02:23:55.505Z,8.47
2023-04-27T02:26:40.549Z,8.42
2023-04-27T02:29:25.579Z,8.44
2023-04-27T02:32:11.035Z,8.34
2023-04-27T02:34:56.236Z,8.33
2023-04-27T02:37:41.152Z,8.31
2023-04-27T02:40:26.263Z,8.27
2023-04-27T02:43:11.269Z,8.21
2023-04-27T02:45:56.373Z,8.22
2023-04-27T02:48:41.457Z,8.17
2023-04-27T02:51:26.397Z,8.21
2023-04-27T02:54:11.313Z,8.12
2023-04-27T02:56:56.276Z,8.17
2023-04-27T02:59:41.219Z,8.15
2023-04-27T03:02:26.134Z,8.12
2023-04-27T03:05:10.948Z,8.11
2023-04-27T03:07:55.985Z,8.20
2023-04-27T03:10:40.989Z,8.16
2023-04-27T03:13:26.102Z,8.15
2023-04-27T03:16:10.939Z,8.15
2023-04-27T03:18:55.992Z,8.10
2023-04-27T03:21:40.858Z,8.15
2023-04-27T03:24:25.827Z,8.08
2023-04-27T03:27:10.586Z,8.05
2023-04-27T03:29:55.668Z,8.00
2023-04-27T03:32:40.554Z,8.00
2023-04-27T03:35:25.494Z,7.96
2023-04-27T03:38:10.535Z,7.92
2023-04-27T03:40:55.569Z,7.87
2023-04-27T03:43:40.719Z,7.89
2023-04-27T03:46:25.558Z,7.91
2023-04-27T03:49:10.528Z,7.89
2023-04-27T03:51:55.376Z,7.88
2023-04-27T03:54:40.420Z,7.92
2023-04-27T03:57:25.619Z,7.89
2023-04-27T04:00:10.347Z,7.85
2023-04-27T04:02:55.477Z,7.80
2023-04-27T04:05:40.195Z,7.82
2023-04-27T04:08:25.204Z,7.83
2023-04-27T04:11:10.288Z,7.72
2023-04-27T04:13:55.340Z,7.65
2023-04-27T04:16:40.344Z,7.59
2023-04-27T04:19:25.378Z,7.52
2023-04-27T04:22:10.115Z,7.43
2023-04-27T04:24:54.635Z,7.41
2023-04-27T04:27:39.676Z,7.43
2023-04-27T04:30:24.497Z,7.47
2023-04-27T04:33:09.296Z,7.38
2023-04-27T04:35:54.133Z,7.43
2023-04-27T04:38:38.999Z,7.46
2023-04-27T04:41:23.949Z,7.52
2023-04-27T04:44:08.717Z,7.48
2023-04-27T04:46:53.768Z,7.49
2023-04-27T04:49:38.644Z,7.45
2023-04-27T04:52:23.315Z,7.45
2023-04-27T04:55:08.113Z,7.47
2023-04-27T04:57:53.225Z,7.42
2023-04-27T05:00:37.995Z,7.40
2023-04-27T05:03:23.018Z,7.47
2023-04-27T05:06:07.930Z,7.42
2023-04-27T05:08:52.914Z,7.44
2023-04-27T05:11:37.839Z,7.43
2023-04-27T05:14:22.584Z,7.40
2023-04-27T05:17:07.649Z,7.38
2023-04-27T05:19:52.464Z,7.39
2023-04-27T05:22:37.536Z,7.32
2023-04-27T05:25:22.336Z,7.37
2023-04-27T05:28:07.363Z,7.32
2023-04-27T05:30:52.177Z,7.35
2023-04-27T05:33:37.049Z,7.38
2023-04-27T05:36:22.053Z,7.42
2023-04-27T05:39:07.003Z,7.47
2023-04-27T05:41:51.962Z,7.60
2023-04-27T05:44:36.776Z,7.71
2023-04-27T05:47:21.742Z,7.66
2023-04-27T05:50:06.700Z,7.79
2023-04-27T05:52:51.603Z,8.11
2023-04-27T05:55:36.648Z,8.37
2023-04-27T05:58:21.712Z,8.50
2023-04-27T06:01:06.794Z,8.60
2023-04-27T06:03:51.548Z,8.79
2023-04-27T06:06:36.419Z,8.70
2023-04-27T06:09:21.232Z,8.95
2023-04-27T06:12:06.170Z,9.13
2023-04-27T06:14:51.070Z,9.13
2023-04-27T06:17:36.077Z,9.18
2023-04-27T06:20:20.936Z,9.42
2023-04-27T06:23:05.773Z,9.71
2023-04-27T06:25:50.634Z,9.84
2023-04-27T06:28:35.487Z,10.00
2023-04-27T06:31:20.512Z,10.07
2023-04-27T06:34:05.458Z,10.24
2023-04-27T06:36:50.371Z,9.87
2023-04-27T06:39:35.391Z,10.04
2023-04-27T06:42:20.390Z,9.97
2023-04-27T06:45:05.356Z,10.18
2023-04-27T06:47:50.429Z,10.29
2023-04-27T06:50:35.424Z,10.50
2023-04-27T06:53:20.295Z,10.38
2023-04-27T06:56:05.187Z,10.38
2023-04-27T06:58:50.145Z,10.31
2023-04-27T07:01:35.414Z,10.51
2023-04-27T07:04:20.164Z,10.48
2023-04-27T07:07:05.103Z,10.39
2023-04-27T07:09:50.026Z,10.93
2023-04-27T07:12:34.769Z,11.05
2023-04-27T07:15:19.872Z,11.18
2023-04-27T07:18:06.063Z,11.19
2023-04-27T07:20:51.082Z,11.24
2023-04-27T07:23:35.983Z,11.27
2023-04-27T07:26:20.938Z,11.27
2023-04-27T07:29:18.792Z,11.07
2023-04-27T07:32:10.317Z,11.57
2023-04-27T07:34:55.230Z,11.63
2023-04-27T07:37:40.265Z,11.53
2023-04-27T07:40:25.312Z,11.59
2023-04-27T07:43:10.041Z,11.22
2023-04-27T07:45:55.152Z,11.35
2023-04-27T07:48:40.117Z,11.69
2023-04-27T07:51:25.122Z,11.67
2023-04-27T07:54:10.220Z,11.56
2023-04-27T07:56:55.024Z,11.95
2023-04-27T07:59:40.029Z,11.99
2023-04-27T08:02:25.212Z,12.03
2023-04-27T08:05:10.313Z,12.11
2023-04-27T08:07:55.564Z,12.14
2023-04-27T08:10:40.500Z,12.17
2023-04-27T08:13:25.621Z,12.28
2023-04-27T08:16:10.607Z,12.23
2023-04-27T08:18:55.627Z,12.34
2023-04-27T08:21:40.540Z,12.59
2023-04-27T08:24:25.722Z,12.75
2023-04-27T08:27:10.870Z,12.80
2023-04-27T08:29:55.621Z,12.76
2023-04-27T08:32:40.789Z,12.86
2023-04-27T08:35:25.491Z,12.88
2023-04-27T08:38:10.587Z,13.03
2023-04-27T08:40:55.556Z,13.11
2023-04-27T08:43:40.690Z,12.90
2023-04-27T08:46:25.590Z,13.21
2023-04-27T08:49:10.844Z,13.08
2023-04-27T08:51:55.543Z,13.32
2023-04-27T08:54:40.334Z,13.40
2023-04-27T08:57:25.166Z,13.30
2023-04-27T09:00:09.987Z,13.29
2023-04-27T09:02:55.185Z,13.55
2023-04-27T09:05:46.652Z,13.58
2023-04-27T09:08:41.295Z,13.63
2023-04-27T09:11:26.281Z,13.73
2023-04-27T09:14:11.262Z,13.70
2023-04-27T09:16:56.113Z,13.98
2023-04-27T09:19:40.958Z,13.99
2023-04-27T09:22:25.932Z,14.04
2023-04-27T09:25:10.898Z,13.79
2023-04-27T09:27:55.937Z,14.12
2023-04-27T09:30:40.847Z,13.99
2023-04-27T09:33:25.945Z,14.07
2023-04-27T09:36:10.927Z,14.33
2023-04-27T09:38:55.717Z,14.38
2023-04-27T09:41:40.844Z,13.88
2023-04-27T09:44:25.480Z,14.04
2023-04-27T09:47:10.667Z,14.10
2023-04-27T09:49:55.570Z,14.12
2023-04-27T09:52:40.620Z,14.01
2023-04-27T09:55:25.630Z,14.16
2023-04-27T09:58:10.375Z,14.13
2023-04-27T10:00:55.365Z,14.23
2023-04-27T10:03:40.415Z,14.46
2023-04-27T10:06:25.351Z,14.51
2023-04-27T10:09:10.151Z,14.86
2023-04-27T10:11:55.044Z,14.65
2023-04-27T10:14:39.993Z,14.65
2023-04-27T10:17:25.103Z,14.75
2023-04-27T10:20:09.829Z,15.07
2023-04-27T10:22:54.701Z,15.15
2023-04-27T10:25:39.652Z,15.42
2023-04-27T10:28:24.466Z,15.54
2023-04-27T10:31:09.642Z,15.63
2023-04-27T10:33:54.597Z,15.78
2023-04-27T10:36:39.392Z,15.75
2023-04-27T10:39:30.058Z,16.04
2023-04-27T10:42:24.487Z,16.48
2023-04-27T10:45:09.422Z,16.43
2023-04-27T10:47:54.515Z,16.43
2023-04-27T10:50:39.283Z,16.57
2023-04-27T10:53:25.430Z,16.55
2023-04-27T10:56:10.498Z,16.68
2023-04-27T10:58:55.382Z,16.65
2023-04-27T11:01:40.288Z,16.82
2023-04-27T11:04:25.219Z,16.43
2023-04-27T11:07:09.994Z,16.74
2023-04-27T11:09:54.840Z,16.59
2023-04-27T11:12:39.699Z,16.80
2023-04-27T11:15:24.782Z,16.67
2023-04-27T11:18:09.418Z,16.91
2023-04-27T11:20:54.343Z,16.79
2023-04-27T11:23:39.385Z,16.91
2023-04-27T11:26:24.309Z,16.77
2023-04-27T11:29:09.142Z,16.76
2023-04-27T11:31:54.246Z,16.27
2023-04-27T11:34:39.280Z,16.05
2023-04-27T11:37:24.304Z,16.26
2023-04-27T11:40:09.475Z,16.58
2023-04-27T11:42:54.512Z,16.34
2023-04-27T11:45:39.579Z,16.28
2023-04-27T11:48:24.447Z,16.32
2023-04-27T11:51:09.300Z,16.58
2023-04-27T11:53:54.294Z,16.75
2023-04-27T11:56:39.301Z,16.99
2023-04-27T11:59:24.438Z,17.09
2023-04-27T12:02:09.297Z,16.91
2023-04-27T12:04:54.479Z,17.12
2023-04-27T12:07:39.644Z,16.92
2023-04-27T12:10:24.696Z,17.11
2023-04-27T12:13:09.606Z,17.25
2023-04-27T12:15:54.748Z,17.30
2023-04-27T12:18:39.726Z,17.29
2023-04-27T12:21:24.820Z,17.15
2023-04-27T12:24:09.773Z,17.14
2023-04-27T12:26:54.759Z,17.45
2023-04-27T12:29:39.769Z,17.58
2023-04-27T12:32:24.428Z,17.72
2023-04-27T12:35:09.517Z,17.85
2023-04-27T12:37:54.148Z,17.86
2023-04-27T12:40:39.202Z,17.55
2023-04-27T12:43:24.172Z,17.55
2023-04-27T12:46:09.154Z,17.64
2023-04-27T12:48:54.176Z,17.65
2023-04-27T12:51:39.039Z,17.83
2023-04-27T12:54:24.086Z,17.94
2023-04-27T12:57:09.141Z,17.67
2023-04-27T12:59:54.175Z,17.76
2023-04-27T13:02:39.154Z,17.81
2023-04-27T13:05:23.815Z,18.00
2023-04-27T13:08:08.662Z,18.11
2023-04-27T13:10:53.603Z,17.99
2023-04-27T13:13:38.853Z,18.17
2023-04-27T13:16:23.975Z,18.21
2023-04-27T13:19:08.783Z,18.43
2023-04-27T13:21:53.267Z,18.49
2023-04-27T13:24:38.222Z,18.68
2023-04-27T13:27:23.088Z,18.70
2023-04-27T13:30:07.980Z,18.69
2023-04-27T13:32:52.884Z,17.90
2023-04-27T13:35:37.765Z,18.16
2023-04-27T13:38:22.834Z,18.02
2023-04-27T13:41:07.785Z,18.30
2023-04-27T13:43:52.692Z,18.25
2023-04-27T13:46:37.611Z,18.40
2023-04-27T13:49:22.435Z,18.48
2023-04-27T13:52:07.243Z,18.20
2023-04-27T13:54:52.067Z,18.29
2023-04-27T13:57:36.854Z,18.27
2023-04-27T14:00:21.808Z,18.13
2023-04-27T14:03:07.027Z,18.15
2023-04-27T14:05:51.774Z,18.44
2023-04-27T14:08:36.926Z,18.51
2023-04-27T14:11:21.778Z,18.16
2023-04-27T14:14:06.755Z,18.21
2023-04-27T14:16:51.633Z,18.18
2023-04-27T14:19:36.684Z,18.42
2023-04-27T14:22:21.814Z,18.51
2023-04-27T14:25:06.693Z,18.65
2023-04-27T14:27:51.957Z,18.63
2023-04-27T14:30:36.861Z,18.66
2023-04-27T14:33:21.860Z,18.75
2023-04-27T14:36:06.931Z,18.57
2023-04-27T14:38:51.779Z,18.58
2023-04-27T14:41:36.719Z,18.57
2023-04-27T14:44:21.624Z,18.71
2023-04-27T14:47:06.712Z,18.53
2023-04-27T14:49:51.845Z,18.49
2023-04-27T14:52:37.009Z,18.32
2023-04-27T14:55:22.027Z,18.56
2023-04-27T14:58:06.980Z,18.44
2023-04-27T15:00:51.999Z,18.39
2023-04-27T15:03:36.986Z,17.95
2023-04-27T15:06:21.939Z,18.33
2023-04-27T15:09:06.856Z,18.58
2023-04-27T15:11:54.058Z,18.45
2023-04-27T15:14:39.939Z,18.42
2023-04-27T15:17:24.975Z,18.51
2023-04-27T15:20:09.838Z,18.51
2023-04-27T15:22:54.644Z,18.39
2023-04-27T15:25:39.569Z,18.52
2023-04-27T15:28:24.506Z,18.19
2023-04-27T15:31:09.970Z,18.44
2023-04-27T15:33:55.141Z,18.40
2023-04-27T15:36:39.883Z,18.68
2023-04-27T15:39:24.585Z,18.20
2023-04-27T15:42:09.702Z,18.32
2023-04-27T15:44:55.074Z,18.49
2023-04-27T15:47:41.244Z,18.52
2023-04-27T15:50:26.432Z,18.65
2023-04-27T15:53:11.071Z,18.35
2023-04-27T15:55:55.744Z,18.43
2023-04-27T15:58:40.700Z,18.42
2023-04-27T16:01:25.945Z,18.33
2023-04-27T16:04:11.224Z,18.39
2023-04-27T16:06:56.218Z,18.01
2023-04-27T16:09:41.334Z,18.13
2023-04-27T16:12:25.987Z,18.19
2023-04-27T16:15:11.698Z,18.08
2023-04-27T16:17:56.498Z,18.15
2023-04-27T16:20:41.357Z,18.19
2023-04-27T16:23:26.271Z,18.05
2023-04-27T16:26:11.097Z,17.95
2023-04-27T16:28:56.208Z,17.63
2023-04-27T16:31:41.005Z,17.61
2023-04-27T16:34:26.479Z,17.62
2023-04-27T16:37:11.319Z,17.63
2023-04-27T16:39:56.116Z,17.59
2023-04-27T16:42:41.013Z,17.54
2023-04-27T16:45:26.043Z,17.33
2023-04-27T16:48:10.957Z,17.44
2023-04-27T16:50:55.928Z,17.33
2023-04-27T16:53:41.118Z,17.32
2023-04-27T16:56:25.938Z,17.20
2023-04-27T16:59:11.217Z,17.14
2023-04-27T17:01:58.738Z,16.79
2023-04-27T17:04:48.892Z,16.86
2023-04-27T17:07:34.032Z,17.02
2023-04-27T17:10:18.684Z,16.82
2023-04-27T17:13:03.515Z,16.67
2023-04-27T17:15:48.548Z,16.69
2023-04-27T17:18:33.462Z,16.69
2023-04-27T17:21:18.366Z,16.78
2023-04-27T17:24:03.371Z,16.65
2023-04-27T17:26:48.261Z,16.56
2023-04-27T17:29:33.157Z,16.53
2023-04-27T17:32:18.231Z,16.43
2023-04-27T17:35:03.230Z,16.41
2023-04-27T17:37:48.033Z,16.47
2023-04-27T17:40:33.237Z,16.16
2023-04-27T17:43:18.219Z,16.26
2023-04-27T17:46:03.261Z,16.23
2023-04-27T17:48:48.185Z,16.22
2023-04-27T17:51:33.263Z,16.19
2023-04-27T17:54:18.135Z,16.19
2023-04-27T17:57:03.149Z,16.14
2023-04-27T17:59:48.077Z,16.10
2023-04-27T18:02:32.979Z,16.05
2023-04-27T18:05:17.910Z,15.99
2023-04-27T18:08:02.844Z,15.90
2023-04-27T18:10:47.583Z,15.82
2023-04-27T18:13:32.467Z,15.79
2023-04-27T18:16:17.477Z,15.69
2023-04-27T18:19:02.467Z,15.59
2023-04-27T18:21:47.250Z,15.47
2023-04-27T18:24:32.366Z,15.36
2023-04-27T18:27:17.314Z,15.28
2023-04-27T18:30:02.393Z,15.29
2023-04-27T18:32:47.321Z,15.27
2023-04-27T18:35:32.449Z,15.18
2023-04-27T18:38:17.300Z,15.12
2023-04-27T18:41:02.303Z,15.08
2023-04-27T18:43:47.088Z,15.02
2023-04-27T18:46:34.491Z,14.99
2023-04-27T18:49:21.497Z,14.91
2023-04-27T18:52:06.232Z,14.87
2023-04-27T18:54:51.268Z,14.79
2023-04-27T18:57:36.268Z,14.76
2023-04-27T19:00:20.992Z,14.68
2023-04-27T19:03:06.294Z,14.62
2023-04-27T19:05:51.144Z,14.49
2023-04-27T19:08:36.065Z,14.43
2023-04-27T19:11:20.901Z,14.42
2023-04-27T19:14:06.071Z,14.32
2023-04-27T19:16:50.999Z,14.31
2023-04-27T19:19:35.901Z,14.35
2023-04-27T19:22:20.757Z,14.41
2023-04-27T19:25:05.581Z,14.33
2023-04-27T19:27:50.552Z,14.32
2023-04-27T19:30:35.372Z,14.28
2023-04-27T19:33:20.530Z,14.27
2023-04-27T19:36:05.028Z,14.20
2023-04-27T19:38:50.120Z,14.21
2023-04-27T19:41:34.781Z,14.02
2023-04-27T19:44:19.656Z,14.06
2023-04-27T19:47:04.704Z,14.04
2023-04-27T19:49:49.587Z,14.04
2023-04-27T19:52:34.530Z,14.06
2023-04-27T19:55:19.256Z,14.04
2023-04-27T19:58:04.262Z,13.98
2023-04-27T20:00:49.082Z,14.02
2023-04-27T20:03:34.269Z,13.98
2023-04-27T20:06:19.042Z,14.01
2023-04-27T20:09:04.053Z,13.98
2023-04-27T20:11:48.902Z,13.89
2023-04-27T20:14:33.810Z,13.89
2023-04-27T20:17:18.688Z,13.86
2023-04-27T20:20:03.499Z,13.83
2023-04-27T20:22:48.409Z,13.74
2023-04-27T20:25:33.227Z,13.73
2023-04-27T20:28:20.233Z,13.69
2023-04-27T20:31:05.203Z,13.69
2023-04-27T20:33:49.967Z,13.62
2023-04-27T20:36:34.951Z,13.66
2023-04-27T20:39:19.780Z,13.76
2023-04-27T20:42:04.821Z,13.76
2023-04-27T20:44:49.614Z,13.75
2023-04-27T20:47:34.496Z,13.63
2023-04-27T20:50:19.445Z,13.70
2023-04-27T20:53:04.269Z,13.76
2023-04-27T20:55:49.226Z,13.74
2023-04-27T20:58:34.201Z,13.78
2023-04-27T21:01:19.272Z,13.73
2023-04-27T21:04:04.245Z,13.72
2023-04-27T21:06:49.387Z,13.77
2023-04-27T21:09:34.384Z,13.80
2023-04-27T21:12:19.413Z,13.76
2023-04-27T21:15:04.249Z,13.74
2023-04-27T21:17:49.307Z,13.70
2023-04-27T21:20:34.364Z,13.65
2023-04-27T21:23:19.316Z,13.53
2023-04-27T21:26:04.323Z,13.57
2023-04-27T21:28:49.188Z,13.55
2023-04-27T21:31:34.140Z,13.52
2023-04-27T21:34:21.121Z,13.52
2023-04-27T21:37:06.014Z,13.53
2023-04-27T21:39:50.954Z,13.55
2023-04-27T21:42:36.065Z,13.50
2023-04-27T21:45:20.977Z,13.51
2023-04-27T21:48:06.048Z,13.45
2023-04-27T21:50:50.719Z,13.49
2023-04-27T21:53:35.623Z,13.47
2023-04-27T21:56:20.643Z,13.45
2023-04-27T21:59:05.621Z,13.50
2023-04-27T22:01:50.731Z,13.36
2023-04-27T22:04:35.826Z,13.28
2023-04-27T22:07:20.894Z,13.01
2023-04-27T22:10:05.715Z,13.02
2023-04-27T22:12:50.572Z,13.04
2023-04-27T22:15:35.467Z,13.04
2023-04-27T22:18:20.450Z,13.08
2023-04-27T22:21:05.525Z,13.00
2023-04-27T22:23:50.280Z,13.07
2023-04-27T22:26:35.270Z,13.03
2023-04-27T22:29:20.539Z,12.99
2023-04-27T22:32:05.566Z,13.02
2023-04-27T22:34:50.485Z,12.98
2023-04-27T22:37:35.220Z,13.04
2023-04-27T22:40:20.201Z,13.05
2023-04-27T22:43:05.034Z,13.10
2023-04-27T22:45:49.940Z,13.14
2023-04-27T22:48:34.853Z,13.06
2023-04-27T22:51:19.780Z,13.08
2023-04-27T22:54:04.762Z,13.09
2023-04-27T22:56:49.560Z,13.04
2023-04-27T22:59:34.468Z,13.17
2023-04-27T23:02:19.441Z,13.29
2023-04-27T23:05:04.128Z,12.48
2023-04-27T23:07:49.025Z,12.89
2023-04-27T23:10:33.965Z,12.94
2023-04-27T23:13:18.924Z,12.99
2023-04-27T23:16:03.780Z,12.96
2023-04-27T23:18:48.894Z,13.05
2023-04-27T23:21:33.787Z,13.06
2023-04-27T23:24:18.892Z,12.99
2023-04-27T23:27:03.838Z,12.94
2023-04-27T23:29:48.840Z,12.97
2023-04-27T23:32:33.790Z,12.98
2023-04-27T23:35:18.628Z,12.92
2023-04-27T23:38:03.629Z,12.83
2023-04-27T23:40:48.544Z,12.84
2023-04-27T23:43:33.557Z,12.72
2023-04-27T23:46:18.504Z,12.67
2023-04-27T23:49:03.446Z,12.64
2023-04-27T23:51:48.253Z,12.32
2023-04-27T23:54:33.256Z,12.38
2023-04-27T23:57:18.207Z,12.33
